AirNav   Everest Fuels
 
 418 users online  

AL27 Headquarters Airport
Centre, Alabama, USA

GOING TO CENTRE?


FAA INFORMATION EFFECTIVE 28 MARCH 2019

Location

FAA Identifier: AL27
Lat/Long: 34-06-20.3500N / 085-33-56.8580W
34-06.339167N / 085-33.947633W
34.1056528 / -85.5657939
(estimated)
Elevation: 610 ft. / 186 m (estimated)
Variation: 01W (1985)
From city: 7 miles SE of CENTRE, AL
Time zone: UTC -5 (UTC -6 during Standard Time)
Zip code: 35960

Airport Operations

Airport use: Private use, PERSONAL USE ONLY.
Activation date: 08/1991
Control tower: no
ARTCC: ATLANTA CENTER
FSS: ANNISTON FLIGHT SERVICE STATION
Attendance: CONTINUOUS
Wind indicator: yes
Segmented circle: no

Nearby radio navigation aids

VOR radial/distance  VOR name  Freq  Var
RMGr260/22.4ROME VORTAC115.4001E
GADr071/26.9GADSDEN VOR/DME112.3002E
TDGr035/39.7TALLADEGA VOR/DME108.8002E

 
NDB name  Hdg/Dist  Freq  Var  ID
FORT PAYNE172/25.542604WFTP ..-. - .--.
CARTERSVILLE265/36.330804WEVZ . ...- --..
CALHOUN246/36.332305WOUK --- ..- -.-
CARROLLTON330/39.027804WGPQ --. .--. --.-

Airport Services

Runway Information

Runway 18/36

Dimensions: 2000 x 50 ft. / 610 x 15 m
Surface: turf
RUNWAY 18  RUNWAY 36
Traffic pattern: leftleft

Airport Ownership and Management from official FAA records

Ownership: Privately-owned
Owner: DONALD RAY SMITH JR.
7785 HWY 411 N.
CENTRE, AL 35960
Phone (404) 680-0261
Manager: DONALD RAY SMITH JR.
7785 HWY 411 N.
CENTRE, AL 35960
Phone (404) 680-0261
CELL: 404-680-0261

Airport Operational Statistics

Aircraft based on the field: 1
Single engine airplanes: 1
    

Instrument Procedures

There are no published instrument procedures at AL27.

Some nearby airports with instrument procedures:

KPYP - Centre-Piedmont-Cherokee County Regional Airport (2 nm SW)
4A4 - Polk County Airport - Cornelius Moore Field (21 nm E)
4A9 - Isbell Field Airport (23 nm N)
KRMG - Richard B. Russell Regional Airport - J.H. Towers Field (25 nm NE)
KGAD - Northeast Alabama Regional Airport (27 nm W)
 
Loc | Ops | Rwys | IFR | FBO | Links
Com | Nav | Svcs | Stats | Notes
Area around AL27 (Headquarters Airport)
 
Road maps at: MapQuest Bing Google
 
Aerial photo
No photo
 
Sectional chart

 
Airport distance calculator
Flying to Headquarters Airport? Find the distance to fly.

From to AL27

Sunrise and sunset
Times for 23-Apr-2019
 Local
(UTC-5)
 Zulu
(UTC)
Morning civil twilight05:3610:36
Sunrise06:0311:03
Sunset19:1900:19
Evening civil twilight19:4500:45

Current date and time
Zulu (UTC)  23-Apr-2019 09:58:11
Local (UTC-5)  23-Apr-2019 04:58:11
 
METAR
K4A9 
23nm N 
230935Z AUTO 36003KT 10SM CLR 09/08 A3011 RMK AO2 T00860084
KRMG 
25nm NE 
230953Z AUTO 00000KT 5SM BR CLR 09/08 A3011 RMK AO2 SLP188 T00890078
KGAD 
26nm W 
230856Z AUTO 25003KT 9SM CLR 09/09 A3012 RMK AO2 SLP201 T00940094 55009
KPUJ 
33nm E 
230935Z AUTO 29004KT 10SM CLR 16/06 A3012 RMK AO2
KANB 
34nm SW 
230953Z AUTO 07003KT 10SM CLR 10/09 A3013 RMK AO2 SLP198 T01000089
K8A0 
35nm W 
230935Z AUTO 00000KT 10SM CLR 13/08 A3011 RMK AO2
KCTJ 
35nm SE 
230935Z AUTO 00000KT 10SM CLR 09/09 A3015 RMK AO2 T00920085
KVPC 
36nm E 
230953Z AUTO 00000KT 10SM CLR 08/08 A3012 RMK AO2 SLP191 T00830078
KCZL 
37nm NE 
230530Z AUTO 00000KT 10SM CLR A3016 RMK AO2
K9A5 
38nm N 
230935Z AUTO 00000KT 10SM CLR 09/09 A3012 RMK AO2 T00900088
TAF
KANB 
34nm SW 
230520Z 2306/2406 00000KT P6SM SKC FM231600 24008KT P6SM FEW250 FM240000 00000KT P6SM BKN250
KASN 
40nm SW 
230520Z 2306/2406 00000KT P6SM SKC FM231600 23008KT P6SM FEW250 FM240000 00000KT P6SM BKN250
NOTAMs
Click for the latest NOTAMs
NOTAMs are issued by the DoD/FAA and will open in a separate window not controlled by AirNav.

 

 
 

Would you like to see your business listed on this page?

 If your business provides an interesting product or service to pilots, flight crews, aircraft, or users of the Headquarters Airport, you should consider listing it here.  To start the listing process, click on the button below
 
Add a business
 

Other Pages about Headquarters Airport

Update a link
 
Copyright © AirNav, LLC. All rights reserved. Privacy Policy  Contact